map of ATR home
ATR - Airport
Location
City:  Atar, Mauritania
Name:Atar International Airport
ICAO:GQPA
IATA:ATR

Details
Type:Airport (Aerodrome, Airfield)
Use:International (customs port of entry)
Latitude:2030'25"N (20.506828)
Longitude:1302'35"W (-13.043193)
Datum:WGS 1984
Elevation:758 ft (231 m)
Variation:4.47W (WMM2015 magnetic declination)
0.11 annual change
Runways:1
Longest:9855 × 98 ft (3004 × 30 m), paved

Time
Time Zone:UTC+0
Local Time:

Weather
METAR:GQPA 111800Z 36008KT 6000 DU NSC 29/M07 Q1018

Related Locations
Nearby:
Farthest:LIF: 12430 mi / 20004 km
Lifou [Ouanaham], Loyalty Islands, NC

Find:

   beyond  
but within

Other Information
Maps:
NOTAMs:
Links:
Sources:

  
  • flag of Mauritania
  

Sectional Chart

Flight Planning
at skyvector.com

Satellite Image

Google Maps Satellite view

 

Copyright © 2004-2018 Karl L. Swartz. All rights reserved.
The Great Circle Mapper name and logo are trademarks of the Great Circle Mapper.
All other trademarks mentioned herein belong to their respective owners.
Please see credits for attibutions and further copyright information.

  Follow gcmap on Facebook Follow gcmap on Twitter Follow gcmap on Google+ GCmap on LinkedIn

hCard Microformat

Geo Microformat